Time;durP1;ratioP1;P1;durP2;ratioP2;P2;SDS_P1;SDS_P2;PMS_P1;PMS_P2;Temp;Humidity;BMP_temperature;BMP_pressure;BME280_temperature;BME280_humidity;BME280_pressure;Samples;Min_cycle;Max_cycle;Signal;HPM_P1;HPM_P2
2024/02/26 00:01:24;;;;;;;2.70;1.30;;;7.30;90.80;;;;;;5009060;28;20410;-72
2024/02/26 00:03:50;;;;;;;1.63;1.20;;;7.30;91.20;;;;;;4991377;28;20254;-71
2024/02/26 00:06:16;;;;;;;1.80;1.30;;;7.20;91.50;;;;;;5006641;28;20491;-73
2024/02/26 00:08:41;;;;;;;2.77;1.10;;;7.10;91.90;;;;;;5017835;28;20185;-71
2024/02/26 00:11:07;;;;;;;1.93;1.00;;;7.20;92.30;;;;;;5004730;28;20519;-72
2024/02/26 00:13:33;;;;;;;3.47;1.50;;;7.20;92.60;;;;;;5000218;28;20262;-74
2024/02/26 00:15:58;;;;;;;4.07;1.77;;;7.20;92.80;;;;;;5002943;28;20666;-72
2024/02/26 00:18:24;;;;;;;2.73;1.27;;;7.20;93.00;;;;;;5011997;28;20199;-72
2024/02/26 00:20:49;;;;;;;2.13;1.27;;;7.20;93.30;;;;;;5010434;28;20184;-72
2024/02/26 00:23:16;;;;;;;2.03;1.00;;;7.20;93.20;;;;;;4991209;28;20187;-72
2024/02/26 00:25:43;;;;;;;1.50;0.90;;;7.20;93.30;;;;;;5018403;28;20206;-71
2024/02/26 00:28:09;;;;;;;2.00;1.10;;;7.30;93.20;;;;;;4988750;28;21013;-71
2024/02/26 00:30:35;;;;;;;1.30;0.90;;;7.20;93.30;;;;;;5013825;28;20430;-70
2024/02/26 00:33:01;;;;;;;2.63;1.13;;;7.30;93.40;;;;;;5005747;28;20433;-71
2024/02/26 00:35:26;;;;;;;2.67;1.17;;;7.30;93.10;;;;;;4999041;28;20215;-71
2024/02/26 00:37:52;;;;;;;1.53;1.00;;;7.30;93.30;;;;;;5005297;28;20218;-72
2024/02/26 00:40:18;;;;;;;2.70;1.00;;;7.30;93.40;;;;;;5002634;28;20172;-72
2024/02/26 00:42:45;;;;;;;2.23;1.13;;;7.30;93.60;;;;;;5002713;28;20175;-71
2024/02/26 00:45:12;;;;;;;2.07;1.00;;;7.30;93.70;;;;;;5005661;28;20302;-73
2024/02/26 00:47:40;;;;;;;1.23;1.03;;;7.30;93.60;;;;;;4998768;28;20509;-72
2024/02/26 00:50:07;;;;;;;2.50;1.10;;;7.40;93.80;;;;;;5002207;28;20426;-70
2024/02/26 00:52:32;;;;;;;1.97;1.10;;;7.40;94.20;;;;;;5004009;28;20425;-71
2024/02/26 00:54:58;;;;;;;2.17;1.20;;;7.40;94.40;;;;;;5011426;28;20496;-71
2024/02/26 00:57:23;;;;;;;1.50;0.90;;;7.40;94.40;;;;;;5011778;28;20491;-71
2024/02/26 00:59:50;;;;;;;3.20;1.20;;;7.40;94.40;;;;;;5000604;28;20183;-70
2024/02/26 01:02:16;;;;;;;3.07;0.93;;;7.30;95.10;;;;;;5006611;28;20192;-71
2024/02/26 01:04:41;;;;;;;2.00;1.10;;;7.20;95.60;;;;;;5000893;28;20898;-71
2024/02/26 01:07:07;;;;;;;1.80;1.20;;;7.10;96.30;;;;;;5007814;28;20214;-72
2024/02/26 01:09:33;;;;;;;1.13;0.80;;;7.30;96.70;;;;;;5002237;28;20183;-69
2024/02/26 01:11:58;;;;;;;1.57;0.97;;;7.20;97.00;;;;;;5009376;28;20206;-72
2024/02/26 01:14:24;;;;;;;2.43;0.93;;;7.20;97.40;;;;;;5008338;28;20211;-70
2024/02/26 01:16:49;;;;;;;1.67;1.07;;;7.20;98.00;;;;;;5008134;28;20237;-71
2024/02/26 01:19:15;;;;;;;1.80;0.80;;;7.30;97.60;;;;;;5001821;28;20195;-70
2024/02/26 01:21:41;;;;;;;1.30;0.80;;;7.20;98.00;;;;;;5010458;28;20251;-71
2024/02/26 01:24:06;;;;;;;1.30;0.97;;;7.10;98.70;;;;;;5006544;28;20191;-72
2024/02/26 01:26:32;;;;;;;3.20;0.90;;;7.00;99.20;;;;;;5006740;28;20214;-72
2024/02/26 01:28:58;;;;;;;1.70;1.07;;;7.00;99.90;;;;;;5011041;28;20253;-72
2024/02/26 01:31:24;;;;;;;2.53;0.80;;;7.00;99.90;;;;;;5006775;28;20184;-72
2024/02/26 01:33:49;;;;;;;1.67;1.07;;;7.00;99.90;;;;;;5005400;28;20199;-71
2024/02/26 01:36:15;;;;;;;1.87;0.80;;;7.00;99.90;;;;;;5011189;28;20221;-71
2024/02/26 01:38:41;;;;;;;1.50;1.00;;;6.90;99.90;;;;;;5000521;28;20210;-72
2024/02/26 01:41:07;;;;;;;1.67;1.10;;;7.00;99.90;;;;;;5015576;28;20421;-71
2024/02/26 01:43:32;;;;;;;3.20;1.00;;;6.90;99.90;;;;;;5010588;28;20494;-70
2024/02/26 01:45:59;;;;;;;1.50;0.90;;;6.80;99.90;;;;;;5001264;28;20208;-72
2024/02/26 01:48:25;;;;;;;3.00;1.10;;;6.80;99.90;;;;;;5010975;28;20194;-72
2024/02/26 01:50:51;;;;;;;1.43;1.10;;;6.80;99.90;;;;;;5013925;28;20793;-74
2024/02/26 01:53:18;;;;;;;1.20;1.00;;;6.80;99.90;;;;;;5003616;28;20537;-72
2024/02/26 01:55:44;;;;;;;2.17;1.10;;;6.70;99.90;;;;;;5002682;28;20462;-69
2024/02/26 01:58:10;;;;;;;2.27;0.90;;;6.70;99.90;;;;;;5006219;28;20433;-72
2024/02/26 02:00:37;;;;;;;0.90;0.60;;;6.70;99.90;;;;;;5002689;28;20266;-71
2024/02/26 02:03:04;;;;;;;1.50;1.00;;;6.70;99.90;;;;;;5005221;28;20903;-71
2024/02/26 02:05:30;;;;;;;2.23;1.10;;;6.70;99.90;;;;;;5000802;28;20646;-72
2024/02/26 02:07:57;;;;;;;1.50;0.90;;;6.70;99.90;;;;;;5011326;28;20430;-72
2024/02/26 02:10:25;;;;;;;1.63;1.00;;;6.70;99.90;;;;;;5014541;28;20493;-70
2024/02/26 02:12:50;;;;;;;3.23;0.93;;;6.70;99.90;;;;;;5014431;28;20437;-70
2024/02/26 02:15:16;;;;;;;1.50;1.00;;;6.60;99.90;;;;;;5010295;28;20470;-68
2024/02/26 02:17:42;;;;;;;1.60;0.93;;;6.70;99.90;;;;;;5000262;28;20214;-70
2024/02/26 02:20:16;;;;;;;1.10;0.70;;;6.70;99.90;;;;;;5004792;28;20192;-71
2024/02/26 02:22:42;;;;;;;1.50;0.93;;;6.80;99.90;;;;;;5005702;28;20225;-69
2024/02/26 02:25:08;;;;;;;1.30;0.90;;;6.90;99.90;;;;;;5006887;28;20430;-71
2024/02/26 02:27:33;;;;;;;1.73;1.10;;;6.90;99.90;;;;;;5006786;28;20215;-71
2024/02/26 02:30:00;;;;;;;1.63;0.90;;;6.90;99.90;;;;;;4998840;28;20196;-71
2024/02/26 02:32:26;;;;;;;1.60;0.90;;;6.90;99.90;;;;;;4999997;28;20523;-72
2024/02/26 02:34:52;;;;;;;1.77;1.10;;;6.90;99.90;;;;;;5009040;28;20797;-70
2024/02/26 02:37:17;;;;;;;1.93;1.03;;;6.90;99.90;;;;;;5002925;28;20526;-72
2024/02/26 02:39:44;;;;;;;1.57;0.87;;;7.00;99.90;;;;;;5010406;28;20204;-71
2024/02/26 02:42:10;;;;;;;1.30;0.80;;;7.00;99.90;;;;;;5007792;28;20195;-73
2024/02/26 02:44:36;;;;;;;2.53;0.90;;;7.00;99.90;;;;;;5017317;28;20702;-70
2024/02/26 02:47:01;;;;;;;1.83;0.97;;;7.00;99.90;;;;;;4998310;28;20491;-71
2024/02/26 02:49:27;;;;;;;1.10;0.80;;;7.00;99.90;;;;;;5002610;28;20239;-70
2024/02/26 02:51:54;;;;;;;1.30;0.80;;;6.90;99.90;;;;;;5000568;28;20219;-71
2024/02/26 02:54:20;;;;;;;1.93;0.97;;;6.90;99.90;;;;;;5005039;28;20419;-72
2024/02/26 02:56:45;;;;;;;1.47;0.80;;;6.90;99.90;;;;;;5000596;28;20473;-70
2024/02/26 02:59:11;;;;;;;2.33;1.10;;;6.90;99.90;;;;;;5006847;28;20411;-70
2024/02/26 03:01:36;;;;;;;1.87;0.80;;;6.90;99.90;;;;;;5009112;28;20238;-71
2024/02/26 03:04:02;;;;;;;1.57;0.83;;;6.80;99.90;;;;;;5001886;28;20199;-72
2024/02/26 03:06:28;;;;;;;1.00;0.73;;;6.80;99.90;;;;;;5011748;28;20213;-72
2024/02/26 03:08:54;;;;;;;1.47;0.97;;;6.80;99.90;;;;;;5009063;28;20191;-70
2024/02/26 03:11:20;;;;;;;1.33;1.00;;;6.80;99.90;;;;;;5005733;28;20195;-70
2024/02/26 03:13:46;;;;;;;1.60;1.00;;;6.80;99.90;;;;;;5014166;28;20767;-70
2024/02/26 03:16:12;;;;;;;1.83;0.90;;;6.70;99.90;;;;;;5000354;28;20678;-72
2024/02/26 03:18:40;;;;;;;1.13;0.80;;;6.60;99.90;;;;;;5009061;28;20510;-72
2024/02/26 03:21:06;;;;;;;2.53;1.00;;;6.60;99.90;;;;;;5001004;28;20190;-70
2024/02/26 03:23:36;;;;;;;1.80;1.20;;;6.60;99.90;;;;;;5002427;28;20423;-70
2024/02/26 03:26:03;;;;;;;2.33;0.90;;;6.60;99.90;;;;;;4996095;28;20431;-71
2024/02/26 03:28:29;;;;;;;1.43;0.70;;;6.60;99.90;;;;;;4999007;28;20450;-70
2024/02/26 03:30:55;;;;;;;2.50;1.00;;;6.60;99.90;;;;;;4999304;28;20485;-70
2024/02/26 03:33:20;;;;;;;1.50;0.97;;;6.60;99.90;;;;;;5005981;28;20427;-71
2024/02/26 03:35:46;;;;;;;1.00;0.77;;;6.60;99.90;;;;;;4999340;28;20298;-69
2024/02/26 03:38:11;;;;;;;1.10;0.70;;;6.60;99.90;;;;;;5003979;28;20509;-70
2024/02/26 03:40:37;;;;;;;1.40;0.90;;;6.50;99.90;;;;;;4997091;28;20195;-70
2024/02/26 03:43:04;;;;;;;1.97;1.13;;;6.60;99.90;;;;;;5003520;28;20179;-72
2024/02/26 03:45:30;;;;;;;2.50;0.90;;;6.50;99.90;;;;;;5015240;28;20586;-70
2024/02/26 03:47:55;;;;;;;1.10;0.90;;;6.50;99.90;;;;;;5001310;28;20421;-71
2024/02/26 03:50:21;;;;;;;1.83;1.33;;;6.50;99.90;;;;;;5006763;28;20241;-71
2024/02/26 03:52:46;;;;;;;1.17;0.67;;;6.50;99.90;;;;;;5004861;28;20268;-71
2024/02/26 03:55:12;;;;;;;1.43;0.73;;;6.50;99.90;;;;;;5013968;28;20183;-70
2024/02/26 03:57:38;;;;;;;2.00;0.90;;;6.40;99.90;;;;;;5014967;28;20203;-71
2024/02/26 04:00:04;;;;;;;2.77;1.40;;;6.40;99.90;;;;;;5002857;28;20590;-71
2024/02/26 04:02:36;;;;;;;1.20;0.80;;;6.40;99.90;;;;;;5011991;28;20186;-72
2024/02/26 04:05:02;;;;;;;2.20;0.90;;;6.40;99.90;;;;;;5004590;28;20426;-71
2024/02/26 04:07:27;;;;;;;2.40;0.70;;;6.30;99.90;;;;;;5004262;28;20204;-70
2024/02/26 04:09:53;;;;;;;1.07;0.80;;;6.30;99.90;;;;;;4998556;28;20188;-72
2024/02/26 04:12:18;;;;;;;3.00;1.00;;;6.30;99.90;;;;;;4998773;28;20194;-71
2024/02/26 04:14:44;;;;;;;2.30;1.20;;;6.30;99.90;;;;;;5005262;28;20243;-71
2024/02/26 04:17:11;;;;;;;0.90;0.60;;;6.20;99.90;;;;;;5000839;28;20234;-71
2024/02/26 04:19:36;;;;;;;2.00;1.07;;;6.20;99.90;;;;;;5004049;28;20218;-70
2024/02/26 04:22:02;;;;;;;1.37;0.90;;;6.20;99.90;;;;;;5006328;28;20414;-72
2024/02/26 04:24:28;;;;;;;1.43;0.97;;;6.20;99.90;;;;;;5009168;28;20289;-72
2024/02/26 04:26:53;;;;;;;1.00;0.80;;;6.10;99.90;;;;;;5003898;28;20217;-74
2024/02/26 04:29:19;;;;;;;2.50;0.90;;;6.00;99.90;;;;;;5010891;28;20275;-71
2024/02/26 04:31:45;;;;;;;2.10;1.10;;;6.00;99.90;;;;;;5007825;28;20269;-71
2024/02/26 04:34:11;;;;;;;1.57;0.80;;;6.00;99.90;;;;;;5006279;28;20194;-71
2024/02/26 04:36:37;;;;;;;1.53;1.20;;;6.00;99.90;;;;;;5005417;28;20936;-70
2024/02/26 04:39:02;;;;;;;3.30;1.03;;;6.00;99.90;;;;;;4995653;28;20208;-71
2024/02/26 04:41:28;;;;;;;2.10;0.97;;;5.90;99.90;;;;;;5006326;28;20246;-71
2024/02/26 04:43:53;;;;;;;1.40;1.00;;;5.90;99.90;;;;;;4999399;28;20263;-71
2024/02/26 04:46:21;;;;;;;4.80;2.10;;;5.90;99.90;;;;;;4998589;28;20226;-70
2024/02/26 04:48:47;;;;;;;2.80;1.30;;;5.90;99.90;;;;;;5001951;28;20195;-71
2024/02/26 04:51:13;;;;;;;1.07;0.77;;;5.80;99.90;;;;;;5003912;28;20991;-71
2024/02/26 04:53:38;;;;;;;2.13;1.07;;;5.80;99.90;;;;;;5014255;28;20447;-71
2024/02/26 04:56:04;;;;;;;2.80;1.00;;;5.80;99.90;;;;;;5014530;28;20233;-71
2024/02/26 04:58:30;;;;;;;1.80;1.00;;;5.80;99.90;;;;;;5014556;28;20175;-72
2024/02/26 05:00:55;;;;;;;4.00;1.13;;;5.90;99.90;;;;;;5015553;28;20702;-72
2024/02/26 05:03:21;;;;;;;2.70;1.80;;;5.80;99.90;;;;;;5012222;28;20187;-72
2024/02/26 05:05:47;;;;;;;2.80;1.57;;;5.80;99.90;;;;;;5015208;28;20211;-71
2024/02/26 05:08:12;;;;;;;1.90;1.60;;;5.70;99.90;;;;;;5017708;28;20215;-72
2024/02/26 05:10:42;;;;;;;3.00;1.90;;;5.70;99.90;;;;;;5017418;28;20429;-72
2024/02/26 05:13:10;;;;;;;4.60;2.00;;;5.70;99.90;;;;;;5016786;28;20214;-72
2024/02/26 05:15:36;;;;;;;3.73;1.87;;;5.70;99.90;;;;;;5016741;28;20730;-72
2024/02/26 05:18:02;;;;;;;3.13;1.43;;;5.80;99.90;;;;;;5015080;28;20410;-70
2024/02/26 05:20:28;;;;;;;3.93;1.73;;;5.80;99.90;;;;;;5013541;28;20418;-73
2024/02/26 05:22:54;;;;;;;5.70;1.70;;;5.70;99.90;;;;;;5016418;28;20781;-73
2024/02/26 05:25:19;;;;;;;3.03;1.40;;;5.70;99.90;;;;;;5017292;28;20430;-71
2024/02/26 05:27:45;;;;;;;3.80;1.60;;;5.70;99.90;;;;;;4990774;28;20271;-72
2024/02/26 05:30:11;;;;;;;2.60;1.93;;;5.70;99.90;;;;;;4997510;28;20206;-70
2024/02/26 05:32:37;;;;;;;4.40;1.83;;;5.60;99.90;;;;;;5018278;28;20271;-73
2024/02/26 05:35:03;;;;;;;3.70;1.63;;;5.60;99.90;;;;;;4994065;28;20451;-73
2024/02/26 05:37:29;;;;;;;2.30;1.53;;;5.60;99.90;;;;;;5018779;28;20614;-70
2024/02/26 05:39:55;;;;;;;1.87;1.47;;;5.60;99.90;;;;;;5018050;28;20976;-74
2024/02/26 05:42:21;;;;;;;3.20;1.40;;;5.60;99.90;;;;;;5017991;28;20429;-70
2024/02/26 05:44:47;;;;;;;3.77;2.07;;;5.60;99.90;;;;;;5018943;28;20226;-72
2024/02/26 05:47:13;;;;;;;2.60;1.23;;;5.60;99.90;;;;;;5018748;28;20203;-71
2024/02/26 05:49:39;;;;;;;4.53;2.10;;;5.60;99.90;;;;;;5017050;28;20193;-73
2024/02/26 05:52:06;;;;;;;5.80;1.63;;;5.60;99.90;;;;;;5004054;28;20455;-73
2024/02/26 05:54:31;;;;;;;2.83;1.83;;;5.60;99.90;;;;;;5019110;28;20396;-71
2024/02/26 05:56:57;;;;;;;3.50;1.73;;;5.60;99.90;;;;;;5019417;28;20481;-73
2024/02/26 05:59:23;;;;;;;2.67;1.40;;;5.60;99.90;;;;;;5001642;28;20183;-74
2024/02/26 06:01:49;;;;;;;2.23;1.50;;;5.60;99.90;;;;;;4982621;28;20442;-71
2024/02/26 06:04:15;;;;;;;3.07;1.93;;;5.50;99.90;;;;;;5020953;28;20488;-72
2024/02/26 06:06:40;;;;;;;2.27;1.40;;;5.50;99.90;;;;;;5022636;28;20261;-72
2024/02/26 06:09:06;;;;;;;2.57;1.40;;;5.50;99.90;;;;;;5021409;28;20162;-73
2024/02/26 06:11:32;;;;;;;1.77;1.53;;;5.50;99.90;;;;;;5022076;28;20179;-72
2024/02/26 06:13:58;;;;;;;4.77;2.27;;;5.50;99.90;;;;;;4989552;28;20238;-71
2024/02/26 06:16:24;;;;;;;3.70;2.00;;;5.50;99.90;;;;;;5019620;28;20225;-74
2024/02/26 06:18:49;;;;;;;3.33;1.70;;;5.50;99.90;;;;;;5019179;28;20494;-72
2024/02/26 06:21:15;;;;;;;2.77;1.77;;;5.40;99.90;;;;;;5019795;28;20411;-73
2024/02/26 06:23:40;;;;;;;2.90;1.90;;;5.40;99.90;;;;;;5002417;28;20187;-75
2024/02/26 06:26:06;;;;;;;4.40;2.20;;;5.40;99.90;;;;;;5024571;28;20499;-73
2024/02/26 06:28:33;;;;;;;4.03;1.90;;;5.40;99.90;;;;;;5023369;28;20199;-72
2024/02/26 06:30:59;;;;;;;3.73;2.40;;;5.40;99.90;;;;;;5022678;28;20194;-76
2024/02/26 06:33:25;;;;;;;2.47;1.70;;;5.40;99.90;;;;;;5020428;28;20453;-74
2024/02/26 06:35:50;;;;;;;5.60;2.10;;;5.40;99.90;;;;;;5022371;28;20466;-73
2024/02/26 06:38:17;;;;;;;3.33;2.40;;;5.40;99.90;;;;;;5004045;28;20190;-72
2024/02/26 06:40:44;;;;;;;2.70;1.93;;;5.40;99.90;;;;;;5022965;28;20216;-73
2024/02/26 06:43:09;;;;;;;1.93;1.60;;;5.40;99.90;;;;;;5004554;28;20437;-74
2024/02/26 06:45:35;;;;;;;2.73;2.30;;;5.40;99.90;;;;;;5001993;28;20782;-72
2024/02/26 06:48:01;;;;;;;3.20;2.30;;;5.40;99.90;;;;;;4997253;28;20190;-74
2024/02/26 06:50:26;;;;;;;3.60;2.00;;;5.40;99.90;;;;;;5023063;28;20250;-74
2024/02/26 06:52:52;;;;;;;2.90;2.13;;;5.40;99.90;;;;;;5023294;28;20183;-75
2024/02/26 06:55:18;;;;;;;2.60;2.20;;;5.40;99.90;;;;;;4991999;28;20283;-72
2024/02/26 06:57:43;;;;;;;3.40;2.40;;;5.40;99.90;;;;;;4997793;28;20244;-73
2024/02/26 07:00:14;;;;;;;3.57;2.50;;;5.40;99.90;;;;;;5023653;28;20179;-74
2024/02/26 07:02:40;;;;;;;3.60;1.97;;;5.40;99.90;;;;;;5017812;28;20226;-73
2024/02/26 07:05:06;;;;;;;5.93;2.30;;;5.40;99.90;;;;;;4994882;28;20421;-75
2024/02/26 07:07:31;;;;;;;2.50;2.03;;;5.40;99.90;;;;;;5022107;28;20437;-71
2024/02/26 07:09:57;;;;;;;4.23;2.40;;;5.40;99.90;;;;;;5022695;28;20671;-74
2024/02/26 07:12:23;;;;;;;2.60;1.80;;;5.40;99.90;;;;;;4988616;28;20541;-76
2024/02/26 07:14:50;;;;;;;3.00;2.33;;;5.40;99.90;;;;;;5021394;28;20259;-75
2024/02/26 07:17:16;;;;;;;2.97;2.33;;;5.50;99.90;;;;;;5024007;28;20489;-73
2024/02/26 07:19:42;;;;;;;3.10;2.77;;;5.50;99.90;;;;;;4994707;28;20419;-75
2024/02/26 07:22:08;;;;;;;5.27;2.07;;;5.50;99.90;;;;;;4997910;28;20773;-74
2024/02/26 07:24:33;;;;;;;2.60;2.30;;;5.50;99.90;;;;;;4992615;28;20447;-76
2024/02/26 07:26:59;;;;;;;3.70;2.63;;;5.50;99.90;;;;;;5018545;28;20211;-75
2024/02/26 07:29:24;;;;;;;3.00;2.40;;;5.50;99.90;;;;;;5021981;28;20198;-74
2024/02/26 07:31:50;;;;;;;3.40;2.33;;;5.50;99.90;;;;;;5020674;28;20273;-75
2024/02/26 07:34:16;;;;;;;4.10;2.67;;;5.50;99.90;;;;;;4981194;28;20206;-73
2024/02/26 07:36:41;;;;;;;3.77;2.27;;;5.50;99.90;;;;;;5022955;28;20221;-78
2024/02/26 07:39:07;;;;;;;2.80;2.57;;;5.50;99.90;;;;;;5026717;28;20171;-72
2024/02/26 07:41:33;;;;;;;4.90;2.40;;;5.50;99.90;;;;;;4999778;28;20218;-72
2024/02/26 07:43:59;;;;;;;3.63;2.60;;;5.50;99.90;;;;;;5004214;28;20207;-74
2024/02/26 07:46:24;;;;;;;3.33;2.60;;;5.50;99.90;;;;;;5024220;28;20210;-73
2024/02/26 07:48:50;;;;;;;3.37;2.13;;;5.50;99.90;;;;;;5004394;28;20422;-76
2024/02/26 07:51:15;;;;;;;2.90;2.17;;;5.60;99.90;;;;;;5022907;28;20227;-74
2024/02/26 07:53:41;;;;;;;4.43;1.97;;;5.60;99.90;;;;;;5023931;28;20183;-76
2024/02/26 07:56:07;;;;;;;2.90;2.10;;;5.60;99.90;;;;;;5024200;28;20226;-75
2024/02/26 07:58:33;;;;;;;3.70;2.23;;;5.60;99.90;;;;;;5025043;28;20488;-75
2024/02/26 08:00:59;;;;;;;4.40;2.37;;;5.60;99.90;;;;;;4989571;28;20568;-74
2024/02/26 08:03:25;;;;;;;3.63;2.20;;;5.60;99.90;;;;;;5005301;28;20419;-74
2024/02/26 08:05:51;;;;;;;3.30;2.27;;;5.60;99.90;;;;;;5025349;28;20538;-72
2024/02/26 08:08:17;;;;;;;2.53;2.30;;;5.60;99.90;;;;;;5025576;28;20186;-72
2024/02/26 08:10:43;;;;;;;3.90;2.43;;;5.60;99.90;;;;;;5026915;28;20418;-75
2024/02/26 08:13:09;;;;;;;3.00;2.00;;;5.60;99.90;;;;;;5031895;28;20193;-72
2024/02/26 08:15:37;;;;;;;2.80;1.83;;;5.60;99.90;;;;;;5031411;28;20222;-77
2024/02/26 08:18:03;;;;;;;2.37;2.00;;;5.60;99.90;;;;;;5028968;28;20243;-75
2024/02/26 08:20:29;;;;;;;3.23;2.17;;;5.60;99.90;;;;;;5002880;28;20562;-73
2024/02/26 08:22:56;;;;;;;4.47;2.17;;;5.60;99.90;;;;;;4985336;28;20442;-76
2024/02/26 08:25:22;;;;;;;2.20;1.90;;;5.60;99.90;;;;;;5003318;28;20427;-73
2024/02/26 08:27:48;;;;;;;3.27;1.87;;;5.60;99.90;;;;;;4996605;28;20457;-73
2024/02/26 08:30:16;;;;;;;2.70;1.73;;;5.60;99.90;;;;;;5021450;28;20736;-73
2024/02/26 08:32:43;;;;;;;4.20;1.70;;;5.60;99.90;;;;;;5024038;28;20229;-74
2024/02/26 08:35:08;;;;;;;2.37;1.70;;;5.60;99.90;;;;;;5018745;28;20752;-74
2024/02/26 08:37:34;;;;;;;4.30;2.40;;;5.60;99.90;;;;;;5002428;28;20445;-75
2024/02/26 08:40:00;;;;;;;2.50;1.90;;;5.60;99.90;;;;;;5005914;28;20555;-76
2024/02/26 08:42:25;;;;;;;3.63;2.50;;;5.60;99.90;;;;;;4972741;28;20188;-74
2024/02/26 08:44:51;;;;;;;2.10;1.87;;;5.60;99.90;;;;;;4995350;28;20216;-75
2024/02/26 08:47:16;;;;;;;2.30;1.90;;;5.60;99.90;;;;;;4953627;28;20234;-74
2024/02/26 08:49:44;;;;;;;2.20;1.80;;;5.60;99.90;;;;;;4965627;28;20200;-78
2024/02/26 08:52:10;;;;;;;2.50;1.87;;;5.70;99.90;;;;;;4959688;28;20306;-75
2024/02/26 08:54:36;;;;;;;2.13;1.87;;;5.70;99.90;;;;;;4959646;28;20759;-75
2024/02/26 08:57:02;;;;;;;2.70;1.80;;;5.70;99.90;;;;;;4972667;28;20256;-73
2024/02/26 08:59:28;;;;;;;3.17;2.10;;;5.70;99.90;;;;;;4974276;28;20463;-74
2024/02/26 09:01:54;;;;;;;3.33;1.90;;;5.70;99.90;;;;;;4931271;28;20452;-73
2024/02/26 09:04:20;;;;;;;2.70;2.03;;;5.70;99.90;;;;;;4946322;28;20869;-72
2024/02/26 09:06:45;;;;;;;3.60;1.67;;;5.70;99.90;;;;;;4948287;28;20204;-75
2024/02/26 09:09:11;;;;;;;2.87;2.10;;;5.70;99.90;;;;;;4969592;28;20212;-75
2024/02/26 09:11:37;;;;;;;3.80;1.90;;;5.70;99.90;;;;;;4950954;29;20537;-73
2024/02/26 09:14:03;;;;;;;3.10;2.30;;;5.70;99.90;;;;;;4969582;28;20198;-73
2024/02/26 09:16:30;;;;;;;2.17;1.77;;;5.70;99.90;;;;;;4928957;29;20718;-73
2024/02/26 09:18:56;;;;;;;2.43;1.90;;;5.70;99.90;;;;;;4978787;28;20450;-74
2024/02/26 09:21:26;;;;;;;2.90;2.10;;;5.70;99.90;;;;;;4991556;28;20418;-73
2024/02/26 09:23:52;;;;;;;2.93;2.37;;;5.60;99.90;;;;;;5023638;28;20704;-74
2024/02/26 09:26:18;;;;;;;3.10;2.20;;;5.60;99.90;;;;;;5024325;28;20434;-72
2024/02/26 09:28:44;;;;;;;2.70;2.00;;;5.60;99.90;;;;;;5001071;28;20692;-74
2024/02/26 09:31:09;;;;;;;4.77;2.30;;;5.70;99.90;;;;;;4986566;28;20274;-74
2024/02/26 09:33:35;;;;;;;3.03;2.07;;;5.70;99.90;;;;;;5022483;28;20473;-76
2024/02/26 09:36:01;;;;;;;2.23;1.83;;;5.80;99.90;;;;;;4990206;28;20272;-75
2024/02/26 09:38:28;;;;;;;2.10;1.80;;;5.80;99.90;;;;;;5024655;28;20580;-74
2024/02/26 09:40:54;;;;;;;2.87;2.20;;;5.80;99.90;;;;;;5005968;28;20702;-71
2024/02/26 09:43:24;;;;;;;2.73;2.00;;;5.70;99.90;;;;;;5027068;28;20436;-74
2024/02/26 09:45:53;;;;;;;3.20;2.57;;;5.70;99.90;;;;;;5024061;28;20442;-74
2024/02/26 09:48:19;;;;;;;4.03;2.03;;;5.70;99.90;;;;;;5003209;28;20478;-73
2024/02/26 09:50:45;;;;;;;2.70;2.00;;;5.70;99.90;;;;;;4977480;28;20486;-73
2024/02/26 09:53:12;;;;;;;2.47;1.80;;;5.80;99.90;;;;;;5020787;28;20458;-73
2024/02/26 09:55:38;;;;;;;3.63;2.20;;;5.70;99.90;;;;;;4998514;28;20510;-76
2024/02/26 09:58:08;;;;;;;3.77;1.67;;;5.70;99.90;;;;;;5025057;28;20734;-74
2024/02/26 10:00:38;;;;;;;4.30;2.40;;;5.70;99.90;;;;;;5004110;28;20180;-72
2024/02/26 10:03:06;;;;;;;3.07;2.33;;;5.80;99.90;;;;;;5026644;28;20426;-73
2024/02/26 10:05:37;;;;;;;2.60;2.13;;;5.80;99.90;;;;;;5000791;28;20838;-76
2024/02/26 10:08:04;;;;;;;2.30;1.80;;;5.90;99.90;;;;;;4970131;28;20431;-74
2024/02/26 10:10:31;;;;;;;3.50;2.30;;;6.00;99.90;;;;;;4980012;28;20430;-74
2024/02/26 10:12:59;;;;;;;3.10;2.10;;;6.00;99.90;;;;;;5005657;28;20426;-73
2024/02/26 10:15:25;;;;;;;2.73;1.87;;;6.10;99.90;;;;;;5025313;28;20457;-73
2024/02/26 10:17:51;;;;;;;2.10;1.80;;;6.10;99.90;;;;;;5009520;28;20406;-74
2024/02/26 10:20:18;;;;;;;2.83;1.70;;;6.10;99.90;;;;;;4990552;28;20428;-74
2024/02/26 10:22:44;;;;;;;2.43;1.50;;;6.00;99.90;;;;;;5002225;28;20315;-74
2024/02/26 10:25:10;;;;;;;3.00;1.80;;;6.00;99.90;;;;;;5000398;28;20443;-73
2024/02/26 10:27:36;;;;;;;1.93;1.73;;;6.10;99.90;;;;;;4989554;28;20442;-74
2024/02/26 10:30:26;;;;;;;3.00;1.80;;;6.10;99.90;;;;;;5028262;28;20457;-74
2024/02/26 10:32:52;;;;;;;2.57;1.93;;;6.10;99.90;;;;;;4983798;28;20218;-75
2024/02/26 10:35:18;;;;;;;2.50;1.90;;;6.10;99.90;;;;;;4999489;28;20425;-74
2024/02/26 10:37:44;;;;;;;1.90;1.50;;;6.20;99.90;;;;;;5023770;28;20267;-74
2024/02/26 10:40:14;;;;;;;3.37;1.73;;;6.30;99.90;;;;;;5003845;28;20461;-72
2024/02/26 10:42:40;;;;;;;2.20;1.63;;;6.40;99.90;;;;;;5024456;28;20191;-74
2024/02/26 10:45:08;;;;;;;2.23;1.70;;;6.60;99.90;;;;;;4983537;28;20762;-76
2024/02/26 10:47:38;;;;;;;2.70;1.60;;;6.60;99.90;;;;;;4984836;28;20438;-75
2024/02/26 10:50:06;;;;;;;2.90;1.60;;;6.70;99.90;;;;;;4985406;28;20449;-75
2024/02/26 10:52:33;;;;;;;2.67;1.97;;;6.80;99.90;;;;;;4999743;28;20453;-73
2024/02/26 10:55:06;;;;;;;1.97;1.43;;;6.70;99.90;;;;;;5002318;28;20802;-73
2024/02/26 10:57:39;;;;;;;2.00;1.70;;;6.70;99.90;;;;;;4970752;28;20462;-74
2024/02/26 11:00:05;;;;;;;1.60;1.40;;;6.80;99.90;;;;;;5001479;28;20458;-76
2024/02/26 11:02:36;;;;;;;2.37;1.50;;;6.80;99.90;;;;;;5025247;28;20437;-75
2024/02/26 11:05:03;;;;;;;1.93;1.63;;;6.80;99.90;;;;;;5016749;28;20422;-77
2024/02/26 11:07:30;;;;;;;2.40;1.73;;;6.80;99.90;;;;;;5025352;28;20441;-75
2024/02/26 11:09:59;;;;;;;2.40;2.20;;;6.70;99.90;;;;;;4994397;28;20425;-75
2024/02/26 11:12:28;;;;;;;2.97;1.57;;;6.80;99.90;;;;;;5002330;28;20450;-72
2024/02/26 11:14:56;;;;;;;4.50;2.17;;;6.80;99.90;;;;;;4997338;28;20512;-75
2024/02/26 11:17:23;;;;;;;2.13;1.83;;;6.80;99.90;;;;;;4990507;28;20473;-74
2024/02/26 11:19:51;;;;;;;2.73;2.20;;;6.80;99.90;;;;;;5017249;28;20426;-74
2024/02/26 11:22:18;;;;;;;2.37;2.10;;;6.80;99.90;;;;;;5025195;28;20406;-75
2024/02/26 11:24:44;;;;;;;2.53;1.70;;;6.80;99.90;;;;;;4984824;28;20788;-74
2024/02/26 11:27:12;;;;;;;3.93;2.50;;;6.90;99.90;;;;;;5002358;28;20461;-76
2024/02/26 11:29:44;;;;;;;3.57;2.10;;;6.80;99.90;;;;;;4989999;28;20756;-74
2024/02/26 11:32:10;;;;;;;2.90;2.60;;;6.90;99.90;;;;;;4992820;28;20425;-73
2024/02/26 11:34:36;;;;;;;2.97;1.93;;;7.00;99.90;;;;;;4984100;28;20437;-73
2024/02/26 11:37:13;;;;;;;2.57;1.93;;;7.00;99.90;;;;;;4979859;28;20468;-73
2024/02/26 11:39:42;;;;;;;3.83;2.50;;;7.00;99.90;;;;;;5000101;28;20413;-73
2024/02/26 11:42:09;;;;;;;3.10;2.07;;;6.90;99.90;;;;;;4986590;28;20429;-75
2024/02/26 11:44:38;;;;;;;3.07;2.37;;;6.90;99.90;;;;;;4984059;28;20718;-75
2024/02/26 11:47:11;;;;;;;3.67;2.53;;;6.90;99.90;;;;;;5024356;28;20450;-77
2024/02/26 11:49:37;;;;;;;4.00;2.63;;;6.80;99.90;;;;;;5009699;28;20513;-74
2024/02/26 11:52:07;;;;;;;2.40;2.17;;;6.80;99.90;;;;;;5002733;28;20769;-77
2024/02/26 11:54:52;;;;;;;3.13;2.30;;;6.80;99.90;;;;;;5011424;28;20203;-76
2024/02/26 11:57:37;;;;;;;3.43;2.43;;;6.90;99.90;;;;;;5014363;28;20476;-75
2024/02/26 12:00:13;;;;;;;4.37;2.57;;;6.90;99.90;;;;;;5023475;28;20430;-73
2024/02/26 12:02:46;;;;;;;3.67;2.63;;;6.90;99.90;;;;;;5005335;28;20501;-76
2024/02/26 12:05:15;;;;;;;4.50;2.53;;;7.00;99.90;;;;;;5022621;28;20426;-73
2024/02/26 12:07:47;;;;;;;4.20;3.20;;;7.00;99.90;;;;;;5003017;28;20434;-75
2024/02/26 12:10:33;;;;;;;3.50;2.30;;;7.10;99.90;;;;;;4989094;28;20486;-75
2024/02/26 12:13:04;;;;;;;3.07;2.70;;;7.20;99.90;;;;;;4984445;28;20417;-78
2024/02/26 12:15:57;;;;;;;4.23;2.27;;;7.40;99.90;;;;;;4997991;28;20454;-74
2024/02/26 12:18:23;;;;;;;3.60;2.93;;;7.50;99.90;;;;;;4985325;28;20428;-75
2024/02/26 12:21:02;;;;;;;4.03;2.77;;;7.40;99.90;;;;;;5003376;28;20452;-75
2024/02/26 12:23:28;;;;;;;3.43;2.70;;;7.50;99.90;;;;;;4980735;28;20428;-75
2024/02/26 12:25:58;;;;;;;4.27;2.40;;;7.60;99.90;;;;;;5004018;28;20461;-76
2024/02/26 12:28:28;;;;;;;3.17;2.20;;;7.60;99.90;;;;;;5026995;28;20417;-75
2024/02/26 12:30:54;;;;;;;5.23;3.77;;;7.60;99.90;;;;;;5007431;28;20784;-76
2024/02/26 12:33:20;;;;;;;8.50;4.37;;;7.50;99.90;;;;;;4995212;28;20430;-76
2024/02/26 12:35:48;;;;;;;6.17;3.80;;;7.30;99.90;;;;;;5000709;28;20463;-77
2024/02/26 12:38:14;;;;;;;5.07;3.17;;;7.30;99.90;;;;;;4999001;28;20197;-77
2024/02/26 12:40:41;;;;;;;5.40;3.90;;;7.20;99.90;;;;;;5021069;28;20418;-76
2024/02/26 12:43:12;;;;;;;5.50;4.20;;;7.20;99.90;;;;;;4981962;28;20439;-75
2024/02/26 12:45:40;;;;;;;4.77;3.60;;;7.10;99.90;;;;;;5002428;28;20518;-75
2024/02/26 12:48:06;;;;;;;5.70;3.83;;;7.10;99.90;;;;;;5021001;28;20434;-75
2024/02/26 12:50:32;;;;;;;5.40;3.90;;;7.10;99.90;;;;;;4994208;28;20914;-75
2024/02/26 12:52:58;;;;;;;6.60;4.07;;;7.10;99.90;;;;;;4995908;28;20503;-75
2024/02/26 12:55:26;;;;;;;6.23;4.50;;;7.10;99.90;;;;;;4990722;28;20216;-76